Portada
METAR-TAF:

METAR-TAF

Aeroports :

Roi Et, Tailàndia

latitud: 16-07-00N, longitud: 103-46-26E, altitud: 138 m

Observació

L'informe es va fer fa 1 hora i 2 minuts, a les 07:00 UTC
Vent 4 kt del Sud-Est, variant entre Nord-Est i Sud/Sud-Oest
Temperatura 35°C
Humitat 50%
Pressió 1007 hPa
Visibilitat 10 km o més
Núvols disperses a una alçada de 3000 ft

METAR: VTUV 080700Z 13004KT 050V200 9999 SCT030 35/23 Q1007 NOSIG

Hora: 15:02 (08:02 UTC)

Pronòstic

L'informe es va fer fa 3 hores i 2 minuts, a les 05:00 UTC
Pronòstic vàlid del 08 a les 06 UTC al 09 a les 06 UTC
Vent 5 kt del Sud
Visibilitat: 9000 m
Escasses núvols a una alçada de 3000 ft

TAF: VTUV 080500Z 0806/0906 19005KT 9000 FEW030

Observacions i pronòstics meteorològics de més de 4000 aeroports (METAR i TAF).

Les estacions disponibles són els punts grocs i vermells al mapa.

Posi el ratolí al punt desitjat per veure el nom de l'estació.

Feu clic per veure les observacions i els pronòstics meteorològics.

Per canviar el mapa: feu clic els botons verds amb una creu de color negre per apropar; al botó verd amb un guió per allunyar la imatge; o en les fletxes verdes per a mapes adjacents.


METAR-TAF: